Flight Track Log - Related Links

Times and Time Zones

All times are in EDT time to prevent confusion due to time zone crossing. See the N600TR flight status page for this flight to view local times or setup timezone preferences in your user account.

Time Position Orientation Groundspeed Altitude Reporting Facility
EDT Latitude Longitude Course Direction KTS MPH feet Rate Location/Type
Sun 05:34:19 PM 30.4286 -91.2219 128° Southeast 239 275 4,100  Level Houston Center
Sun 05:35:00 PM 30.7024 -90.8123 133° Southeast  Level Estimated
Sun 05:35:21 PM 30.3853 -91.1539 126° Southeast 270 311 6,700  Level Houston Center
Sun 05:36:00 PM 30.7587 -90.6995 120° Southeast  Level Estimated
Sun 05:36:22 PM 30.3511 -91.0531 111° Southeast 305 351 9,300  Level Houston Center
Sun 05:37:00 PM 30.6483 -90.6765 170° South  Level FlightAware Approximate
Sun 05:37:25 PM 30.3581 -90.9517 85° East 316 364 11,300  Level Houston Center
Sun 05:38:00 PM 30.7062 -90.5648 123° Southeast  Level Estimated
Sun 05:38:27 PM 30.3889 -90.8475 71° East 342 394 12,500  Level Houston Center
Sun 05:39:00 PM 30.7639 -90.4531 128° Southeast  Level Estimated
Sun 05:39:29 PM 30.4175 -90.7308 74° East 377 434 13,600  Level Houston Center
Sun 05:40:25 PM 30.4564 -90.6058 70° East 403 464 15,900 2,103 Climbing Houston Center
Sun 05:41:26 PM 30.4992 -90.4886 67° East 398 458 17,700 1,603 Climbing Houston Center
Sun 05:42:21 PM 30.5522 -90.3803 60° Northeast 412 474 19,000 1,406 Climbing Houston Center
Sun 05:43:34 PM 30.6211 -90.2375 61° Northeast 418 481 20,700 1,398 Climbing Houston Center
Sun 05:44:34 PM 30.6758 -90.1144 63° Northeast 426 490 22,100 1,200 Climbing Houston Center
Sun 05:45:29 PM 30.7269 -90.0108 60° Northeast 433 498 23,000 1,131 Climbing Houston Center
Sun 05:46:36 PM 30.7953 -89.8650 61° Northeast 449 517 24,400 1,091 Climbing Houston Center
Sun 05:47:30 PM 30.8519 -89.7461 61° Northeast 454 522 25,200 1,099 Climbing Houston Center
Sun 05:48:47 PM 30.9247 -89.6033 59° Northeast 451 519 26,800 1,338 Climbing Houston Center
Sun 05:49:49 PM 30.9856 -89.4783 60° Northeast 443 510 28,300 1,065 Climbing Houston Center
Sun 05:50:51 PM 31.0472 -89.3528 60° Northeast 444 511 29,000 290 Climbing Houston Center
Sun 05:51:53 PM 31.1203 -89.1922 62° Northeast 467 537 28,900 -48 Descending Houston Center
Sun 05:52:55 PM 31.1839 -89.0536 62° Northeast 482 555 28,900  Level Houston Center
Sun 05:53:57 PM 31.2503 -88.9167 60° Northeast 483 556 28,900 48 Level Houston Center
Sun 05:54:59 PM 31.3264 -88.7706 59° Northeast 476 548 29,000 48 Climbing Houston Center
Sun 05:56:01 PM 31.3967 -88.6375 58° Northeast 476 548 29,000  Level Houston Center
Sun 05:57:03 PM 31.4653 -88.5047 59° Northeast 472 543 29,000  Level Houston Center
Sun 05:58:05 PM 31.5336 -88.3700 59° Northeast 474 545 29,000  Level Houston Center
Sun 05:59:07 PM 31.6033 -88.2342 59° Northeast 480 552 29,000  Level Houston Center
Sun 06:00:09 PM 31.6981 -88.1258 44° Northeast 480 552 29,000  Level Houston Center
Sun 06:01:11 PM 31.8069 -88.0431 33° Northeast 466 536 29,000  Level Houston Center
Sun 06:02:13 PM 31.9061 -87.9581 36° Northeast 445 512 29,000  Level Houston Center
Sun 06:03:15 PM 31.9856 -87.8075 58° Northeast 449 517 29,000  Level Houston Center
Sun 06:04:16 PM 32.0519 -87.6800 58° Northeast 440 506 29,000  Level Atlanta Center
Sun 06:05:16 PM 32.1036 -87.5572 64° Northeast 453 521 29,000  Level Atlanta Center
Sun 06:06:16 PM 32.1656 -87.4247 61° Northeast 458 527 29,000  Level Atlanta Center
Sun 06:07:16 PM 32.2275 -87.2969 60° Northeast 453 521 29,000  Level Atlanta Center
Sun 06:08:16 PM 32.2914 -87.1667 60° Northeast 448 516 29,000  Level Atlanta Center
Sun 06:09:16 PM 32.3550 -87.0411 59° Northeast 448 516 29,000  Level Atlanta Center
Sun 06:10:16 PM 32.4186 -86.9103 60° Northeast 448 516 29,000  Level Atlanta Center
Sun 06:11:16 PM 32.4886 -86.7722 59° Northeast 459 528 29,000 -150 Level Atlanta Center
Sun 06:12:16 PM 32.5567 -86.6192 62° Northeast 464 534 28,700 -2,200 Descending Atlanta Center
Sun 06:13:16 PM 32.6117 -86.4800 65° Northeast 469 540 24,600 -2,300 Descending Atlanta Center
Sun 06:14:16 PM 32.6456 -86.3406 74° East 454 522 24,100 -350 Descending Atlanta Center
Sun 06:15:16 PM 32.6942 -86.2011 67° East 446 513 23,900 -300 Descending Atlanta Center
Sun 06:16:16 PM 32.7422 -86.0639 67° East 441 507 23,500 -900 Descending Atlanta Center
Sun 06:17:16 PM 32.7947 -85.9267 65° Northeast 446 513 22,100 -1,550 Descending Atlanta Center
Sun 06:18:16 PM 32.8489 -85.7869 65° Northeast 453 521 20,400 -1,400 Descending Atlanta Center
Sun 06:19:16 PM 32.8986 -85.6519 66° East 453 521 19,300 -700 Descending Atlanta Center
Sun 06:20:16 PM 32.9483 -85.5242 65° Northeast 441 507 19,000 -150 Descending Atlanta Center
Sun 06:21:16 PM 32.9894 -85.3861 70° East 435 501 19,000 -600 Level Atlanta Center
Sun 06:22:16 PM 33.0306 -85.2481 70° East 440 506 17,800 -1,650 Descending Atlanta Center
Sun 06:23:16 PM 33.0839 -85.1322 61° Northeast 409 471 15,700 -1,900 Descending Atlanta Center
Sun 06:24:16 PM 33.1744 -85.0439 39° Northeast 398 458 14,000 -1,200 Descending Atlanta Center
Sun 06:25:16 PM 33.2564 -84.9531 43° Northeast 398 458 13,300 -850 Descending Atlanta Center
Sun 06:26:16 PM 33.3303 -84.8544 48° Northeast 393 452 12,300 -650 Descending Atlanta Center
Sun 06:27:16 PM 33.3936 -84.7503 54° Northeast 393 452 12,000 -150 Descending Atlanta Center
Sun 06:28:16 PM 33.4650 -84.6439 51° Northeast 393 452 12,000  Level Atlanta Center
Sun 06:29:16 PM 33.5219 -84.5597 51° Northeast 380 437 12,000 -300 Level Atlanta Center
Sun 06:30:16 PM 33.5472 -84.4675 72° East 327 376 11,400 -1,000 Descending Atlanta Center
Sun 06:31:16 PM 33.5494 -84.3803 88° East 278 320 10,000 -2,075 Descending Atlanta Center
Sun 06:32:03 PM 33.5500 -84.3000 90° East 242 278 7,700 -2,692 Descending Atlanta TRACON
Sun 06:33:03 PM 33.5667 -84.2167 76° East 259 298 5,200 -2,000 Descending Atlanta TRACON
Sun 06:34:03 PM 33.6000 -84.2500 320° Northwest 217 250 3,700 -1,200 Descending Atlanta TRACON
Sun 06:35:03 PM 33.6167 -84.3167 287° West 188 216 2,800 -950 Descending Atlanta TRACON
Sun 06:36:03 PM 33.6167 -84.3667 270° West 150 173 1,800 -1,000 Descending Atlanta TRACON

Login

Don't have an account? Register now (free) for customized features, flight alerts, and more!